Gravelly, Arkansas
Current Conditions -  °F | °C
As of 10:53 AM on Wednesday 22 Oct 2014 (Local Time) from KMWT Reporting Station
Broken Clouds Broken Clouds  
Wind Chill: 58°   Ceiling: 500
Heat Index: 58°   Visibility: 10mi
Dew Point: 56°   Wind: 5mph
Humidity: 93%   Direction: NA
Pressure: 30.23"   Gusts: NA
Location:  34.88°N, 93.69°W
Report Text: KMWT 221553Z AUTO VRB04KT 10SM BKN005 14/13 A3023 RMK AO2 CIG 003V008 SLP235 T01440133
Loading
Personal Weather Stations






























Interactive Weather Map
Tropical Storm Tracking
New forecast layout! Learn more

10-Day Weather Forecast

Advertisements
Track Severe Weather on mobile